Time;durP1;ratioP1;P1;durP2;ratioP2;P2;SDS_P1;SDS_P2;PMS_P1;PMS_P2;Temp;Humidity;BMP_temperature;BMP_pressure;BME280_temperature;BME280_humidity;BME280_pressure;Samples;Min_cycle;Max_cycle;Signal;HPM_P1;HPM_P2
2021/07/28 00:01:26;;;;;;;27.90;8.95;;;;;;;;;;5032951;28;20484;-44
2021/07/28 00:03:52;;;;;;;25.05;9.00;;;;;;;;;;5032846;28;20029;-44
2021/07/28 00:06:22;;;;;;;23.58;8.95;;;;;;;;;;5032811;28;20057;-43
2021/07/28 00:08:48;;;;;;;26.90;9.32;;;;;;;;;;5035944;28;20033;-44
2021/07/28 00:11:15;;;;;;;23.08;9.20;;;;;;;;;;5036596;28;20119;-44
2021/07/28 00:13:41;;;;;;;35.08;19.15;;;;;;;;;;5036438;28;20025;-43
2021/07/28 00:16:12;;;;;;;36.47;22.15;;;;;;;;;;5036448;28;20046;-46
2021/07/28 00:24:07;;;;;;;25.15;10.75;;;;;;;;;;5036815;28;20399;-43
2021/07/28 00:26:34;;;;;;;39.28;23.58;;;;;;;;;;5036177;28;20021;-43
2021/07/28 00:29:00;;;;;;;24.70;9.57;;;;;;;;;;5034701;28;20401;-43
2021/07/28 00:31:26;;;;;;;20.73;8.50;;;;;;;;;;5036160;28;20026;-43
2021/07/28 00:33:52;;;;;;;19.65;8.15;;;;;;;;;;5036252;28;20029;-45
2021/07/28 00:36:18;;;;;;;25.83;10.52;;;;;;;;;;5036035;28;20018;-44
2021/07/28 00:38:44;;;;;;;27.45;9.90;;;;;;;;;;5036298;28;20041;-43
2021/07/28 00:41:12;;;;;;;43.17;24.88;;;;;;;;;;5036117;28;20489;-43
2021/07/28 00:43:38;;;;;;;39.83;18.05;;;;;;;;;;5035930;28;20030;-43
2021/07/28 00:46:04;;;;;;;24.30;11.98;;;;;;;;;;5036371;28;20032;-43
2021/07/28 00:48:30;;;;;;;29.65;8.63;;;;;;;;;;5035973;28;20048;-44
2021/07/28 00:50:57;;;;;;;24.30;8.30;;;;;;;;;;5035949;28;20021;-43
2021/07/28 00:53:24;;;;;;;22.42;8.85;;;;;;;;;;5035820;28;20068;-44
2021/07/28 00:55:51;;;;;;;29.13;9.77;;;;;;;;;;5035884;28;20480;-43
2021/07/28 00:58:17;;;;;;;21.60;9.73;;;;;;;;;;5035639;28;20026;-43
2021/07/28 01:00:44;;;;;;;32.35;16.90;;;;;;;;;;5035568;28;20876;-43
2021/07/28 01:03:10;;;;;;;34.95;20.67;;;;;;;;;;5035823;28;20394;-43
2021/07/28 01:05:36;;;;;;;31.13;15.02;;;;;;;;;;5035781;28;20119;-44
2021/07/28 01:08:03;;;;;;;24.63;9.77;;;;;;;;;;5035430;28;20037;-43
2021/07/28 01:10:29;;;;;;;26.67;12.27;;;;;;;;;;5035576;28;20045;-43
2021/07/28 01:12:56;;;;;;;27.38;11.60;;;;;;;;;;5035381;28;20017;-43
2021/07/28 01:18:01;;;;;;;23.48;8.65;;;;;;;;;;5035407;28;20045;-44
2021/07/28 01:20:31;;;;;;;25.13;11.52;;;;;;;;;;5035249;28;20024;-43
2021/07/28 01:22:58;;;;;;;26.37;10.67;;;;;;;;;;5035314;28;20021;-43
2021/07/28 01:25:24;;;;;;;32.55;11.10;;;;;;;;;;5035247;28;20365;-43
2021/07/28 01:27:50;;;;;;;22.48;10.18;;;;;;;;;;5035092;28;20022;-43
2021/07/28 01:30:17;;;;;;;25.98;10.55;;;;;;;;;;5035111;28;20048;-43
2021/07/28 01:32:43;;;;;;;22.33;8.85;;;;;;;;;;5035030;28;20026;-43
2021/07/28 01:35:14;;;;;;;23.85;9.60;;;;;;;;;;5035057;28;20013;-43
2021/07/28 01:37:41;;;;;;;20.25;8.05;;;;;;;;;;5035056;28;20044;-43
2021/07/28 01:40:07;;;;;;;24.65;9.27;;;;;;;;;;5035103;28;20025;-43
2021/07/28 01:42:43;;;;;;;28.42;9.00;;;;;;;;;;5034912;28;20068;-44
2021/07/28 01:45:10;;;;;;;29.88;15.70;;;;;;;;;;5034742;28;20029;-43
2021/07/28 01:47:36;;;;;;;45.35;29.02;;;;;;;;;;5034844;28;20392;-43
2021/07/28 01:50:02;;;;;;;27.75;13.25;;;;;;;;;;5034928;28;20044;-43
2021/07/28 01:52:28;;;;;;;26.90;10.50;;;;;;;;;;5034840;28;20116;-43
2021/07/28 01:54:54;;;;;;;24.35;9.80;;;;;;;;;;5034659;28;20028;-43
2021/07/28 01:57:20;;;;;;;29.13;12.18;;;;;;;;;;5034475;28;20060;-43
2021/07/28 01:59:46;;;;;;;24.83;9.02;;;;;;;;;;5034751;28;20478;-44
2021/07/28 02:02:12;;;;;;;32.33;16.63;;;;;;;;;;5034642;28;20037;-43
2021/07/28 02:04:39;;;;;;;28.20;15.10;;;;;;;;;;5034409;28;20112;-43
2021/07/28 02:07:05;;;;;;;20.45;8.82;;;;;;;;;;5034379;28;20053;-43
2021/07/28 02:09:31;;;;;;;25.25;10.10;;;;;;;;;;5034237;28;20458;-43
2021/07/28 02:11:57;;;;;;;22.35;9.15;;;;;;;;;;5033725;28;20045;-43
2021/07/28 02:14:23;;;;;;;23.95;9.27;;;;;;;;;;5034183;28;20052;-43
2021/07/28 02:16:49;;;;;;;24.80;9.20;;;;;;;;;;5034213;28;20056;-43
2021/07/28 02:19:15;;;;;;;24.17;8.93;;;;;;;;;;5034199;28;20063;-43
2021/07/28 02:21:42;;;;;;;25.60;12.55;;;;;;;;;;5034145;28;20496;-42
2021/07/28 02:24:08;;;;;;;24.13;11.95;;;;;;;;;;5034034;28;20104;-43
2021/07/28 02:26:34;;;;;;;44.53;21.55;;;;;;;;;;5033740;28;20029;-43
2021/07/28 02:29:00;;;;;;;38.72;23.25;;;;;;;;;;5033817;28;20056;-43
2021/07/28 02:31:26;;;;;;;26.13;12.10;;;;;;;;;;5033328;28;20014;-43
2021/07/28 02:33:52;;;;;;;24.98;12.32;;;;;;;;;;5034022;28;20027;-43
2021/07/28 02:36:18;;;;;;;23.52;11.57;;;;;;;;;;5033964;28;20535;-43
2021/07/28 02:38:44;;;;;;;21.77;10.43;;;;;;;;;;5033807;28;20120;-43
2021/07/28 02:41:10;;;;;;;55.20;32.05;;;;;;;;;;5033567;28;20030;-43
2021/07/28 02:43:36;;;;;;;25.67;11.80;;;;;;;;;;5033841;28;20371;-44
2021/07/28 02:46:02;;;;;;;29.83;14.13;;;;;;;;;;5033711;28;20032;-40
2021/07/28 02:48:28;;;;;;;29.73;10.88;;;;;;;;;;5033542;28;20044;-43
2021/07/28 02:50:55;;;;;;;23.98;10.32;;;;;;;;;;5033672;28;20079;-44
2021/07/28 02:53:23;;;;;;;26.05;9.77;;;;;;;;;;5032149;28;20452;-43
2021/07/28 02:55:51;;;;;;;22.02;10.20;;;;;;;;;;5033412;28;20067;-43
2021/07/28 02:58:17;;;;;;;34.22;11.63;;;;;;;;;;5033449;28;20489;-43
2021/07/28 03:00:43;;;;;;;25.00;11.15;;;;;;;;;;5033669;28;20028;-43
2021/07/28 03:03:09;;;;;;;29.88;13.02;;;;;;;;;;5033483;28;20025;-42
2021/07/28 03:05:36;;;;;;;41.92;15.95;;;;;;;;;;5033563;28;20021;-42
2021/07/28 03:08:02;;;;;;;47.47;16.05;;;;;;;;;;5033793;28;20393;-43
2021/07/28 03:10:28;;;;;;;48.05;18.45;;;;;;;;;;5033439;28;20049;-43
2021/07/28 03:12:54;;;;;;;55.67;18.98;;;;;;;;;;5033370;28;20037;-43
2021/07/28 03:15:20;;;;;;;44.53;16.83;;;;;;;;;;5033114;28;20049;-42
2021/07/28 03:17:46;;;;;;;42.30;16.38;;;;;;;;;;5033243;28;20394;-42
2021/07/28 03:20:13;;;;;;;38.95;17.27;;;;;;;;;;5033374;28;20025;-42
2021/07/28 03:22:39;;;;;;;40.97;16.65;;;;;;;;;;5033157;28;20106;-42
2021/07/28 03:25:05;;;;;;;38.13;15.45;;;;;;;;;;5033210;28;20505;-43
2021/07/28 03:27:31;;;;;;;38.47;15.00;;;;;;;;;;5033042;28;20029;-42
2021/07/28 03:29:57;;;;;;;38.13;14.68;;;;;;;;;;5033208;28;20037;-42
2021/07/28 03:32:23;;;;;;;38.83;15.68;;;;;;;;;;5033205;28;20104;-44
2021/07/28 03:34:49;;;;;;;37.15;14.02;;;;;;;;;;5033294;28;20482;-42
2021/07/28 03:37:15;;;;;;;43.05;15.90;;;;;;;;;;5033203;28;20064;-45
2021/07/28 03:39:41;;;;;;;39.47;14.07;;;;;;;;;;5033090;28;20026;-44
2021/07/28 03:42:09;;;;;;;35.92;14.80;;;;;;;;;;5033139;28;20390;-42
2021/07/28 03:44:36;;;;;;;38.47;13.55;;;;;;;;;;5036949;28;20044;-44
2021/07/28 03:47:02;;;;;;;28.60;12.18;;;;;;;;;;5037399;28;20034;-44
2021/07/28 03:49:28;;;;;;;30.48;12.60;;;;;;;;;;5036835;28;20025;-42
2021/07/28 03:51:54;;;;;;;29.23;11.80;;;;;;;;;;5036964;28;20052;-45
2021/07/28 03:54:20;;;;;;;31.33;11.82;;;;;;;;;;5036774;28;20478;-45
2021/07/28 03:56:46;;;;;;;36.20;12.13;;;;;;;;;;5036737;28;20022;-44
2021/07/28 03:59:14;;;;;;;37.20;14.43;;;;;;;;;;5036666;28;20489;-48
2021/07/28 04:01:40;;;;;;;30.77;12.05;;;;;;;;;;5036924;28;20112;-45
2021/07/28 04:04:06;;;;;;;29.10;12.23;;;;;;;;;;5037103;28;20080;-46
2021/07/28 04:06:32;;;;;;;33.38;13.73;;;;;;;;;;5036784;28;20021;-44
2021/07/28 04:08:58;;;;;;;26.55;11.27;;;;;;;;;;5036582;28;20474;-45
2021/07/28 04:11:25;;;;;;;28.05;12.38;;;;;;;;;;5036397;28;20022;-44
2021/07/28 04:13:53;;;;;;;38.03;13.07;;;;;;;;;;5036551;28;20037;-44
2021/07/28 04:16:19;;;;;;;28.95;12.15;;;;;;;;;;5036169;28;20041;-44
2021/07/28 04:18:45;;;;;;;32.60;11.82;;;;;;;;;;5036668;28;20033;-43
2021/07/28 04:21:11;;;;;;;28.30;11.65;;;;;;;;;;5036325;28;20373;-43
2021/07/28 04:23:37;;;;;;;33.35;13.70;;;;;;;;;;5036399;28;20057;-44
2021/07/28 04:26:03;;;;;;;29.83;12.27;;;;;;;;;;5036063;28;20021;-43
2021/07/28 04:28:29;;;;;;;27.70;12.00;;;;;;;;;;5036082;28;20037;-44
2021/07/28 04:30:55;;;;;;;40.47;15.80;;;;;;;;;;5036257;28;20026;-44
2021/07/28 04:33:22;;;;;;;72.18;28.52;;;;;;;;;;5036250;28;20497;-44
2021/07/28 04:35:48;;;;;;;43.05;21.80;;;;;;;;;;5036206;28;20025;-44
2021/07/28 04:38:14;;;;;;;34.28;14.23;;;;;;;;;;5036365;28;20100;-43
2021/07/28 04:40:40;;;;;;;35.05;14.35;;;;;;;;;;5035925;28;20017;-43
2021/07/28 04:43:06;;;;;;;37.78;16.85;;;;;;;;;;5035918;28;20024;-44
2021/07/28 04:45:32;;;;;;;41.75;19.27;;;;;;;;;;5035859;28;20026;-43
2021/07/28 04:47:58;;;;;;;40.53;18.75;;;;;;;;;;5035715;28;20026;-43
2021/07/28 04:50:24;;;;;;;48.50;19.58;;;;;;;;;;5035889;28;20042;-43
2021/07/28 04:52:50;;;;;;;38.30;16.05;;;;;;;;;;5035396;28;20028;-43
2021/07/28 04:55:16;;;;;;;36.13;16.08;;;;;;;;;;5035617;28;20072;-42
2021/07/28 04:57:42;;;;;;;41.65;16.50;;;;;;;;;;5035533;28;20091;-43
2021/07/28 05:00:09;;;;;;;42.00;16.90;;;;;;;;;;5035432;28;20033;-43
2021/07/28 05:02:35;;;;;;;37.85;15.30;;;;;;;;;;5035679;28;20028;-43
2021/07/28 05:05:01;;;;;;;23.70;10.48;;;;;;;;;;5035686;28;20053;-43
2021/07/28 05:07:27;;;;;;;28.80;10.65;;;;;;;;;;5035617;28;20096;-44
2021/07/28 05:09:53;;;;;;;23.48;9.77;;;;;;;;;;5035615;28;20025;-43
2021/07/28 05:12:19;;;;;;;24.00;10.27;;;;;;;;;;5035349;28;20057;-44
2021/07/28 05:14:45;;;;;;;28.60;10.35;;;;;;;;;;5035303;28;20075;-41
2021/07/28 05:17:11;;;;;;;26.90;10.35;;;;;;;;;;5035570;28;20087;-44
2021/07/28 05:19:37;;;;;;;26.55;11.02;;;;;;;;;;5035375;28;20029;-42
2021/07/28 05:22:03;;;;;;;21.42;10.20;;;;;;;;;;5035681;28;20470;-42
2021/07/28 05:24:29;;;;;;;17.35;10.07;;;;;;;;;;5035355;28;20025;-42
2021/07/28 05:26:55;;;;;;;30.00;10.85;;;;;;;;;;5035255;28;20022;-42
2021/07/28 05:29:22;;;;;;;23.48;9.35;;;;;;;;;;5035273;28;20482;-43
2021/07/28 05:31:50;;;;;;;25.17;10.38;;;;;;;;;;5035263;28;20060;-43
2021/07/28 05:34:16;;;;;;;31.65;9.82;;;;;;;;;;5035031;28;20026;-43
2021/07/28 05:36:42;;;;;;;19.92;9.73;;;;;;;;;;5035139;28;20025;-43
2021/07/28 05:39:08;;;;;;;24.33;9.05;;;;;;;;;;5034925;28;20108;-43
2021/07/28 05:41:37;;;;;;;24.23;9.93;;;;;;;;;;5035034;28;20183;-43
2021/07/28 05:44:07;;;;;;;26.33;10.13;;;;;;;;;;5034881;28;20474;-42
2021/07/28 05:46:34;;;;;;;23.05;9.23;;;;;;;;;;5035026;28;20379;-42
2021/07/28 05:49:01;;;;;;;16.55;8.65;;;;;;;;;;5034711;28;20029;-42
2021/07/28 05:51:27;;;;;;;19.25;8.75;;;;;;;;;;5034800;28;20496;-41
2021/07/28 05:53:53;;;;;;;20.80;9.27;;;;;;;;;;5034890;28;20029;-43
2021/07/28 05:56:19;;;;;;;20.63;9.07;;;;;;;;;;5034553;28;20029;-42
2021/07/28 05:58:45;;;;;;;21.75;8.93;;;;;;;;;;5034518;28;20030;-43
2021/07/28 06:01:11;;;;;;;24.20;9.50;;;;;;;;;;5034514;28;20025;-42
2021/07/28 06:03:37;;;;;;;24.15;9.23;;;;;;;;;;5034495;28;20025;-43
2021/07/28 06:06:03;;;;;;;26.02;9.05;;;;;;;;;;5033586;28;20055;-42
2021/07/28 06:08:29;;;;;;;25.90;9.02;;;;;;;;;;5034398;28;20025;-42
2021/07/28 06:10:56;;;;;;;16.90;7.97;;;;;;;;;;5033394;28;20041;-42
2021/07/28 06:13:22;;;;;;;26.27;8.73;;;;;;;;;;5034287;28;20018;-43
2021/07/28 06:15:48;;;;;;;40.10;24.23;;;;;;;;;;5034139;28;20045;-43
2021/07/28 06:18:15;;;;;;;50.50;23.77;;;;;;;;;;5034254;28;20072;-44
2021/07/28 06:20:41;;;;;;;31.77;15.43;;;;;;;;;;5034133;28;20521;-43
2021/07/28 06:23:07;;;;;;;34.67;13.98;;;;;;;;;;5034232;28;20021;-43
2021/07/28 06:25:33;;;;;;;42.17;26.65;;;;;;;;;;5034119;28;20025;-42
2021/07/28 06:27:59;;;;;;;35.67;16.17;;;;;;;;;;5033863;28;20053;-43
2021/07/28 06:30:25;;;;;;;29.88;14.55;;;;;;;;;;5033923;28;20036;-44
2021/07/28 06:32:51;;;;;;;32.08;13.32;;;;;;;;;;5034211;28;20032;-43
2021/07/28 06:35:19;;;;;;;33.17;16.17;;;;;;;;;;5034036;28;20025;-42
2021/07/28 06:37:46;;;;;;;22.88;12.40;;;;;;;;;;5033964;28;20147;-43
2021/07/28 06:40:12;;;;;;;23.90;8.77;;;;;;;;;;5034056;28;20022;-42
2021/07/28 06:42:38;;;;;;;23.73;9.07;;;;;;;;;;5033941;28;20056;-44
2021/07/28 06:45:04;;;;;;;25.73;9.88;;;;;;;;;;5033522;28;20117;-43
2021/07/28 06:47:30;;;;;;;24.20;10.32;;;;;;;;;;5034233;28;20033;-43
2021/07/28 06:49:56;;;;;;;23.27;8.57;;;;;;;;;;5033785;28;20041;-43
2021/07/28 06:52:23;;;;;;;23.00;9.20;;;;;;;;;;5033829;28;20458;-43
2021/07/28 06:54:49;;;;;;;23.10;9.15;;;;;;;;;;5033569;28;20021;-43
2021/07/28 06:57:15;;;;;;;17.63;8.23;;;;;;;;;;5033586;28;20021;-42
2021/07/28 06:59:41;;;;;;;18.77;8.93;;;;;;;;;;5033678;28;20030;-43
2021/07/28 07:02:09;;;;;;;24.73;9.18;;;;;;;;;;5033532;28;20526;-43
2021/07/28 07:04:35;;;;;;;18.13;8.20;;;;;;;;;;5033836;28;20394;-44
2021/07/28 07:07:01;;;;;;;21.98;9.25;;;;;;;;;;5033753;28;20021;-44
2021/07/28 07:09:27;;;;;;;22.48;8.70;;;;;;;;;;5033401;28;20120;-44
2021/07/28 07:11:53;;;;;;;20.83;8.55;;;;;;;;;;5033473;28;20108;-44
2021/07/28 07:14:21;;;;;;;16.40;8.45;;;;;;;;;;5033204;28;20075;-43
2021/07/28 07:16:47;;;;;;;17.45;8.63;;;;;;;;;;5033457;28;20068;-43
2021/07/28 07:19:13;;;;;;;23.45;8.88;;;;;;;;;;5033270;28;20080;-43
2021/07/28 07:21:39;;;;;;;16.13;8.05;;;;;;;;;;5033445;28;20374;-43
2021/07/28 07:24:05;;;;;;;17.00;8.70;;;;;;;;;;5033473;28;20034;-42
2021/07/28 07:26:32;;;;;;;20.85;8.40;;;;;;;;;;5033404;28;20025;-43
2021/07/28 07:28:58;;;;;;;19.25;7.72;;;;;;;;;;5033342;28;20041;-43
2021/07/28 07:31:24;;;;;;;17.95;8.18;;;;;;;;;;5033150;28;20470;-43
2021/07/28 07:33:50;;;;;;;16.90;8.50;;;;;;;;;;5033368;28;20108;-43
2021/07/28 07:36:18;;;;;;;24.90;8.82;;;;;;;;;;5033051;28;20026;-42
2021/07/28 07:38:44;;;;;;;21.33;8.70;;;;;;;;;;5033040;28;20393;-43
2021/07/28 07:41:10;;;;;;;20.50;8.38;;;;;;;;;;5033494;28;20022;-44
2021/07/28 07:43:37;;;;;;;20.88;8.63;;;;;;;;;;5033113;28;20497;-45
2021/07/28 07:46:03;;;;;;;18.70;8.65;;;;;;;;;;5033106;28;20037;-42
2021/07/28 07:48:29;;;;;;;19.77;9.57;;;;;;;;;;5033049;28;20124;-41
2021/07/28 07:50:55;;;;;;;18.27;9.23;;;;;;;;;;5032907;28;20036;-40
2021/07/28 07:53:21;;;;;;;25.55;9.98;;;;;;;;;;5033043;28;20033;-44
2021/07/28 07:55:48;;;;;;;24.05;10.18;;;;;;;;;;5033283;28;20018;-42
2021/07/28 07:58:14;;;;;;;24.23;11.10;;;;;;;;;;5033103;28;20028;-41
2021/07/28 08:00:40;;;;;;;22.63;10.38;;;;;;;;;;5032878;28;20033;-39
2021/07/28 08:03:06;;;;;;;158.65;141.25;;;;;;;;;;5032671;28;20030;-41
2021/07/28 08:05:32;;;;;;;49.95;34.00;;;;;;;;;;5032922;28;20108;-44
2021/07/28 08:07:58;;;;;;;76.60;60.13;;;;;;;;;;5032843;28;20484;-44
2021/07/28 08:10:25;;;;;;;29.58;12.45;;;;;;;;;;5032798;28;20034;-44
2021/07/28 08:12:51;;;;;;;27.00;12.60;;;;;;;;;;5032715;28;20021;-43
2021/07/28 08:15:17;;;;;;;34.30;16.75;;;;;;;;;;5037710;28;20116;-43
2021/07/28 08:17:43;;;;;;;33.25;18.65;;;;;;;;;;5052064;28;20100;-42
2021/07/28 08:20:09;;;;;;;49.75;15.63;;;;;;;;;;5052124;28;20539;-43
2021/07/28 08:22:35;;;;;;;86.93;32.15;;;;;;;;;;5052104;28;20489;-42
2021/07/28 08:25:01;;;;;;;53.22;21.17;;;;;;;;;;5052171;28;20446;-43
2021/07/28 08:27:27;;;;;;;38.55;14.85;;;;;;;;;;5051921;28;20022;-46
2021/07/28 08:29:57;;;;;;;31.92;12.50;;;;;;;;;;5053698;28;20400;-45
2021/07/28 08:32:23;;;;;;;28.40;12.52;;;;;;;;;;5053456;28;20037;-43
2021/07/28 08:34:49;;;;;;;20.50;10.77;;;;;;;;;;5055385;28;20020;-41
2021/07/28 08:37:17;;;;;;;21.30;8.90;;;;;;;;;;5055507;28;20425;-44
2021/07/28 08:39:43;;;;;;;20.40;9.23;;;;;;;;;;5053148;28;20021;-44
2021/07/28 08:42:11;;;;;;;21.88;7.13;;;;;;;;;;5055380;28;20027;-42
2021/07/28 08:44:38;;;;;;;26.58;8.52;;;;;;;;;;5055093;28;20455;-42
2021/07/28 08:47:04;;;;;;;20.45;7.25;;;;;;;;;;5055291;28;20017;-42
2021/07/28 08:49:30;;;;;;;16.27;6.55;;;;;;;;;;5055211;28;20037;-42
2021/07/28 08:51:56;;;;;;;17.27;7.20;;;;;;;;;;5055199;28;20017;-44
2021/07/28 08:54:23;;;;;;;16.80;7.53;;;;;;;;;;5055087;28;20044;-43
2021/07/28 08:56:49;;;;;;;16.23;7.10;;;;;;;;;;5055148;28;20055;-43
2021/07/28 08:59:31;;;;;;;20.48;7.25;;;;;;;;;;5055607;28;20108;-44
2021/07/28 09:01:58;;;;;;;18.52;7.18;;;;;;;;;;5055220;28;20065;-43
2021/07/28 09:04:27;;;;;;;18.02;7.13;;;;;;;;;;5055213;28;20036;-43
2021/07/28 09:06:53;;;;;;;17.75;6.40;;;;;;;;;;5054902;28;20024;-43
2021/07/28 09:09:20;;;;;;;18.60;7.22;;;;;;;;;;5054685;28;20060;-44
2021/07/28 09:11:56;;;;;;;14.13;7.10;;;;;;;;;;5054682;28;20018;-44
2021/07/28 09:14:27;;;;;;;23.23;7.07;;;;;;;;;;5053107;28;20032;-43
2021/07/28 09:16:54;;;;;;;14.52;6.53;;;;;;;;;;5050589;28;20068;-43
2021/07/28 09:19:43;;;;;;;19.65;7.20;;;;;;;;;;5054779;28;20027;-40
2021/07/28 09:22:10;;;;;;;15.40;6.57;;;;;;;;;;5032252;28;20443;-44
2021/07/28 09:24:36;;;;;;;19.35;6.50;;;;;;;;;;5032625;28;20068;-42
2021/07/28 09:27:03;;;;;;;16.70;6.20;;;;;;;;;;5032528;28;20026;-43
2021/07/28 09:29:29;;;;;;;16.63;6.28;;;;;;;;;;5032482;28;20049;-43
2021/07/28 09:31:56;;;;;;;11.45;6.43;;;;;;;;;;5030030;28;20036;-42
2021/07/28 09:34:23;;;;;;;10.43;5.47;;;;;;;;;;5032244;28;20041;-43
2021/07/28 09:36:49;;;;;;;15.88;6.28;;;;;;;;;;5032472;28;20097;-43
2021/07/28 09:39:30;;;;;;;16.67;6.25;;;;;;;;;;5032141;28;20046;-44
2021/07/28 09:42:00;;;;;;;19.45;6.40;;;;;;;;;;5032259;28;20024;-43
2021/07/28 09:44:28;;;;;;;15.27;5.88;;;;;;;;;;5032225;28;20188;-43
2021/07/28 09:47:07;;;;;;;14.82;5.88;;;;;;;;;;5015634;28;20434;-44
2021/07/28 09:49:34;;;;;;;11.82;6.10;;;;;;;;;;5032329;28;20096;-43
2021/07/28 09:52:15;;;;;;;18.05;6.43;;;;;;;;;;5029316;28;20382;-43
2021/07/28 09:54:41;;;;;;;24.10;7.60;;;;;;;;;;5030958;28;20030;-44
2021/07/28 09:57:10;;;;;;;15.15;5.45;;;;;;;;;;5032272;28;20072;-43
2021/07/28 09:59:36;;;;;;;19.33;5.72;;;;;;;;;;5047893;28;20397;-43
2021/07/28 10:02:04;;;;;;;12.43;6.03;;;;;;;;;;5054497;28;20028;-43
2021/07/28 10:04:30;;;;;;;18.73;6.22;;;;;;;;;;5054319;28;20025;-44
2021/07/28 10:06:57;;;;;;;19.88;5.63;;;;;;;;;;5054355;28;20024;-43
2021/07/28 10:09:27;;;;;;;10.30;4.95;;;;;;;;;;5053853;28;20037;-42
2021/07/28 10:11:57;;;;;;;16.80;5.72;;;;;;;;;;5053576;28;20021;-43
2021/07/28 10:14:23;;;;;;;16.25;5.97;;;;;;;;;;5053538;28;20089;-44
2021/07/28 10:16:49;;;;;;;13.43;5.30;;;;;;;;;;5053351;28;20080;-43
2021/07/28 10:19:16;;;;;;;11.75;5.57;;;;;;;;;;5050908;28;20100;-43
2021/07/28 10:21:43;;;;;;;14.50;5.50;;;;;;;;;;5053275;28;20013;-43
2021/07/28 10:24:14;;;;;;;15.02;5.82;;;;;;;;;;5053716;28;20062;-43
2021/07/28 10:26:45;;;;;;;13.30;5.68;;;;;;;;;;5051407;28;20025;-43
2021/07/28 10:29:11;;;;;;;15.02;4.78;;;;;;;;;;5053249;28;20076;-42
2021/07/28 10:31:47;;;;;;;14.77;5.70;;;;;;;;;;5053384;28;20019;-43
2021/07/28 10:34:24;;;;;;;18.17;5.30;;;;;;;;;;5053590;28;20021;-44
2021/07/28 10:36:54;;;;;;;14.52;6.18;;;;;;;;;;5053231;28;20032;-44
2021/07/28 10:39:35;;;;;;;16.38;5.55;;;;;;;;;;5053108;28;20029;-43
2021/07/28 10:42:07;;;;;;;13.20;5.40;;;;;;;;;;5049660;28;20021;-44
2021/07/28 10:44:53;;;;;;;19.98;5.50;;;;;;;;;;5053061;28;20029;-43
2021/07/28 10:47:33;;;;;;;18.42;5.80;;;;;;;;;;5053035;28;20524;-44
2021/07/28 10:49:59;;;;;;;15.98;4.85;;;;;;;;;;5050427;28;20428;-43
2021/07/28 10:52:36;;;;;;;19.73;4.97;;;;;;;;;;5052587;28;20021;-44
2021/07/28 10:55:02;;;;;;;24.38;11.88;;;;;;;;;;5052911;28;20107;-44
2021/07/28 10:57:28;;;;;;;15.55;5.43;;;;;;;;;;5052731;28;20492;-44
2021/07/28 10:59:54;;;;;;;14.05;5.88;;;;;;;;;;5053075;28;20101;-44
2021/07/28 11:02:20;;;;;;;11.80;5.45;;;;;;;;;;5052770;28;20473;-46
2021/07/28 11:04:48;;;;;;;25.80;15.85;;;;;;;;;;5051742;28;20116;-45
2021/07/28 11:07:14;;;;;;;24.77;11.82;;;;;;;;;;5053409;28;20029;-45
2021/07/28 11:09:40;;;;;;;20.77;6.10;;;;;;;;;;5053081;28;20033;-43
2021/07/28 11:12:08;;;;;;;13.23;5.18;;;;;;;;;;5053141;28;20032;-46
2021/07/28 11:14:40;;;;;;;17.83;5.43;;;;;;;;;;5024962;28;20473;-44
2021/07/28 11:17:06;;;;;;;11.70;4.68;;;;;;;;;;5019265;28;20041;-44
2021/07/28 11:19:51;;;;;;;14.35;5.57;;;;;;;;;;5042239;28;20125;-43
2021/07/28 11:22:24;;;;;;;16.20;5.50;;;;;;;;;;5018480;28;20378;-43
2021/07/28 11:24:57;;;;;;;17.35;4.80;;;;;;;;;;5018252;28;21003;-43
2021/07/28 11:27:23;;;;;;;12.88;6.25;;;;;;;;;;5017711;28;20032;-45
2021/07/28 11:30:08;;;;;;;14.93;5.18;;;;;;;;;;5017774;28;20389;-43
2021/07/28 11:32:39;;;;;;;10.57;4.63;;;;;;;;;;5017906;28;20137;-44
2021/07/28 11:35:05;;;;;;;;;;;;;;;;;;5018131;28;20029;-43
2021/07/28 11:37:31;;;;;;;16.92;4.93;;;;;;;;;;5018270;28;20098;-43
2021/07/28 11:39:59;;;;;;;12.95;4.72;;;;;;;;;;5017646;28;20351;-44
2021/07/28 11:42:28;;;;;;;13.07;4.63;;;;;;;;;;5017675;28;20029;-43
2021/07/28 11:44:54;;;;;;;14.13;4.70;;;;;;;;;;5017234;28;20071;-44
2021/07/28 11:47:23;;;;;;;19.98;5.47;;;;;;;;;;5017923;28;20122;-50
2021/07/28 11:50:03;;;;;;;14.43;4.70;;;;;;;;;;5017624;28;20066;-51
2021/07/28 11:52:32;;;;;;;16.65;5.35;;;;;;;;;;5018131;28;20536;-52
2021/07/28 11:54:58;;;;;;;10.80;4.35;;;;;;;;;;5017446;28;20021;-53
2021/07/28 11:57:24;;;;;;;15.57;5.22;;;;;;;;;;5016107;28;20223;-47
2021/07/28 11:59:50;;;;;;;13.88;4.95;;;;;;;;;;5017778;28;20033;-52
2021/07/28 12:02:22;;;;;;;14.48;5.60;;;;;;;;;;5017575;28;20105;-57
2021/07/28 12:04:48;;;;;;;16.65;5.28;;;;;;;;;;5020067;28;20025;-52
2021/07/28 12:07:16;;;;;;;15.98;5.28;;;;;;;;;;5021619;28;20029;-55
2021/07/28 12:09:43;;;;;;;12.05;5.25;;;;;;;;;;5021117;28;20091;-54
2021/07/28 12:12:19;;;;;;;14.85;5.03;;;;;;;;;;5021356;28;20032;-54
2021/07/28 12:14:46;;;;;;;17.45;4.90;;;;;;;;;;5021163;28;20037;-51
2021/07/28 12:17:18;;;;;;;18.95;5.75;;;;;;;;;;5020910;28;20076;-50
2021/07/28 12:20:03;;;;;;;16.15;4.97;;;;;;;;;;5020996;28;20378;-51
2021/07/28 12:22:35;;;;;;;13.30;5.47;;;;;;;;;;5021327;28;20679;-49
2021/07/28 12:25:22;;;;;;;20.13;5.97;;;;;;;;;;5021293;28;20024;-49
2021/07/28 12:28:00;;;;;;;15.93;8.05;;;;;;;;;;5020544;28;20021;-54
2021/07/28 12:30:32;;;;;;;15.60;5.57;;;;;;;;;;5021273;28;20430;-54
2021/07/28 12:33:01;;;;;;;13.27;5.57;;;;;;;;;;5020630;28;20029;-55
2021/07/28 12:35:36;;;;;;;16.55;5.28;;;;;;;;;;5021008;28;20013;-54
2021/07/28 12:38:05;;;;;;;13.48;5.35;;;;;;;;;;5020959;28;20029;-53
2021/07/28 12:40:31;;;;;;;15.13;5.25;;;;;;;;;;5020844;28;20163;-53
2021/07/28 12:42:57;;;;;;;17.27;5.35;;;;;;;;;;5021422;28;20021;-53
2021/07/28 12:45:24;;;;;;;17.00;4.80;;;;;;;;;;5020557;28;20515;-52
2021/07/28 12:47:50;;;;;;;12.20;5.40;;;;;;;;;;5020547;28;20036;-49
2021/07/28 12:50:19;;;;;;;17.98;5.47;;;;;;;;;;5020463;28;20045;-51
2021/07/28 12:52:45;;;;;;;9.90;5.40;;;;;;;;;;5020522;28;20024;-50
2021/07/28 12:55:12;;;;;;;22.38;8.95;;;;;;;;;;5020822;28;20029;-56
2021/07/28 12:57:38;;;;;;;17.58;9.23;;;;;;;;;;5020495;28;20343;-52
2021/07/28 13:00:04;;;;;;;13.70;5.72;;;;;;;;;;5020079;28;20155;-52
2021/07/28 13:02:32;;;;;;;16.42;6.32;;;;;;;;;;5020339;28;20022;-52
2021/07/28 13:04:58;;;;;;;13.77;6.63;;;;;;;;;;5020042;28;20025;-52
2021/07/28 13:07:43;;;;;;;14.57;5.70;;;;;;;;;;5020083;28;20037;-51
2021/07/28 13:10:09;;;;;;;19.80;9.30;;;;;;;;;;5019535;28;20098;-49
2021/07/28 13:12:36;;;;;;;17.88;6.15;;;;;;;;;;5021473;28;20967;-54
2021/07/28 13:15:02;;;;;;;12.40;5.28;;;;;;;;;;5019715;28;20219;-52
2021/07/28 13:17:28;;;;;;;15.18;5.72;;;;;;;;;;5019464;28;20535;-50
2021/07/28 13:19:54;;;;;;;16.73;6.18;;;;;;;;;;5019388;28;20037;-52
2021/07/28 13:22:20;;;;;;;15.10;5.72;;;;;;;;;;5020396;28;20060;-52
2021/07/28 13:24:46;;;;;;;14.27;6.32;;;;;;;;;;5019823;28;20079;-51
2021/07/28 13:27:12;;;;;;;19.42;12.20;;;;;;;;;;5019679;28;20104;-48
2021/07/28 13:29:38;;;;;;;29.83;17.38;;;;;;;;;;5019541;28;20030;-50
2021/07/28 13:32:04;;;;;;;17.63;7.13;;;;;;;;;;5020040;28;20021;-51
2021/07/28 13:34:30;;;;;;;18.42;8.48;;;;;;;;;;5019381;28;21316;-53
2021/07/28 13:36:57;;;;;;;19.58;12.73;;;;;;;;;;5019646;28;20784;-51
2021/07/28 13:39:23;;;;;;;21.63;13.02;;;;;;;;;;5019409;28;20029;-52
2021/07/28 13:41:49;;;;;;;14.25;7.15;;;;;;;;;;5019417;28;20017;-48
2021/07/28 13:44:15;;;;;;;16.13;8.85;;;;;;;;;;5019513;28;20411;-47
2021/07/28 13:46:41;;;;;;;21.20;7.85;;;;;;;;;;5019334;28;20594;-51
2021/07/28 13:49:08;;;;;;;21.90;7.47;;;;;;;;;;5019390;28;20111;-48
2021/07/28 13:51:35;;;;;;;9.07;5.60;;;;;;;;;;5019585;28;20591;-49
2021/07/28 13:54:01;;;;;;;21.88;8.52;;;;;;;;;;5019082;28;20122;-48
2021/07/28 13:56:27;;;;;;;20.80;10.18;;;;;;;;;;5018930;28;20103;-49
2021/07/28 13:58:53;;;;;;;16.05;7.03;;;;;;;;;;5019037;28;20053;-50
2021/07/28 14:01:19;;;;;;;18.42;7.65;;;;;;;;;;5019472;28;20075;-53
2021/07/28 14:03:45;;;;;;;16.63;6.85;;;;;;;;;;5018775;28;20033;-48
2021/07/28 14:06:11;;;;;;;15.30;6.40;;;;;;;;;;5019262;28;20017;-50
2021/07/28 14:08:37;;;;;;;12.32;5.30;;;;;;;;;;5018944;28;20033;-51
2021/07/28 14:11:07;;;;;;;10.75;5.93;;;;;;;;;;5018994;28;21271;-48
2021/07/28 14:13:33;;;;;;;20.10;6.50;;;;;;;;;;5018813;28;20028;-48
2021/07/28 14:15:59;;;;;;;16.55;6.50;;;;;;;;;;5018798;28;20060;-56
2021/07/28 14:18:26;;;;;;;16.98;6.13;;;;;;;;;;5018772;28;20034;-49
2021/07/28 14:20:52;;;;;;;12.48;6.50;;;;;;;;;;5018963;28;20167;-52
2021/07/28 14:23:18;;;;;;;12.18;5.90;;;;;;;;;;5018967;28;20029;-48
2021/07/28 14:25:44;;;;;;;14.27;6.18;;;;;;;;;;5018251;28;20509;-47
2021/07/28 14:28:11;;;;;;;190.18;170.38;;;;;;;;;;5018783;28;20047;-57
2021/07/28 14:30:37;;;;;;;30.35;17.02;;;;;;;;;;5018518;28;20144;-54
2021/07/28 14:33:03;;;;;;;14.90;6.63;;;;;;;;;;5018531;28;21002;-55
2021/07/28 14:35:29;;;;;;;14.70;6.82;;;;;;;;;;5018578;28;20017;-52